sensor_id;sensor_type;location;lat;lon;timestamp;temperature;humidity
66670;DHT22;53568;52.164;4.472;2024-01-07T00:01:34;2.80;76.44
66670;DHT22;53568;52.164;4.472;2024-01-07T00:04:00;2.75;76.80
66670;DHT22;53568;52.164;4.472;2024-01-07T00:06:25;2.71;77.06
66670;DHT22;53568;52.164;4.472;2024-01-07T00:08:51;2.87;76.81
66670;DHT22;53568;52.164;4.472;2024-01-07T00:11:16;2.84;76.47
66670;DHT22;53568;52.164;4.472;2024-01-07T00:13:42;2.80;76.84
66670;DHT22;53568;52.164;4.472;2024-01-07T00:16:08;2.95;76.75
66670;DHT22;53568;52.164;4.472;2024-01-07T00:18:33;3.01;76.41
66670;DHT22;53568;52.164;4.472;2024-01-07T00:21:01;2.85;76.47
66670;DHT22;53568;52.164;4.472;2024-01-07T00:23:26;2.88;76.47
66670;DHT22;53568;52.164;4.472;2024-01-07T00:25:52;2.64;76.83
66670;DHT22;53568;52.164;4.472;2024-01-07T00:28:17;2.71;76.61
66670;DHT22;53568;52.164;4.472;2024-01-07T00:30:43;2.57;77.14
66670;DHT22;53568;52.164;4.472;2024-01-07T00:33:09;2.55;76.86
66670;DHT22;53568;52.164;4.472;2024-01-07T00:35:34;2.68;76.41
66670;DHT22;53568;52.164;4.472;2024-01-07T00:38:00;2.54;76.23
66670;DHT22;53568;52.164;4.472;2024-01-07T00:40:25;2.70;76.36
66670;DHT22;53568;52.164;4.472;2024-01-07T00:42:51;2.64;76.32
66670;DHT22;53568;52.164;4.472;2024-01-07T00:45:23;2.71;75.98
66670;DHT22;53568;52.164;4.472;2024-01-07T00:47:48;2.81;75.79
66670;DHT22;53568;52.164;4.472;2024-01-07T00:50:14;2.74;75.94
66670;DHT22;53568;52.164;4.472;2024-01-07T00:52:41;2.53;76.61
66670;DHT22;53568;52.164;4.472;2024-01-07T00:55:08;2.71;76.17
66670;DHT22;53568;52.164;4.472;2024-01-07T00:57:34;2.50;76.71
66670;DHT22;53568;52.164;4.472;2024-01-07T01:00:04;2.55;76.41
66670;DHT22;53568;52.164;4.472;2024-01-07T01:02:30;2.54;76.89
66670;DHT22;53568;52.164;4.472;2024-01-07T01:04:58;2.62;76.50
66670;DHT22;53568;52.164;4.472;2024-01-07T01:07:24;2.55;76.75
66670;DHT22;53568;52.164;4.472;2024-01-07T01:09:49;2.37;77.20
66670;DHT22;53568;52.164;4.472;2024-01-07T01:12:15;2.50;76.94
66670;DHT22;53568;52.164;4.472;2024-01-07T01:14:41;2.50;76.73
66670;DHT22;53568;52.164;4.472;2024-01-07T01:17:09;2.60;76.73
66670;DHT22;53568;52.164;4.472;2024-01-07T01:19:35;2.43;76.99
66670;DHT22;53568;52.164;4.472;2024-01-07T01:22:00;2.53;76.84
66670;DHT22;53568;52.164;4.472;2024-01-07T01:24:26;2.51;76.65
66670;DHT22;53568;52.164;4.472;2024-01-07T01:26:51;2.55;76.54
66670;DHT22;53568;52.164;4.472;2024-01-07T01:29:17;2.64;76.50
66670;DHT22;53568;52.164;4.472;2024-01-07T01:31:42;2.77;75.94
66670;DHT22;53568;52.164;4.472;2024-01-07T01:34:08;2.54;76.19
66670;DHT22;53568;52.164;4.472;2024-01-07T01:36:33;2.38;77.23
66670;DHT22;53568;52.164;4.472;2024-01-07T01:38:59;2.43;77.24
66670;DHT22;53568;52.164;4.472;2024-01-07T01:41:24;2.47;77.04
66670;DHT22;53568;52.164;4.472;2024-01-07T01:43:50;2.51;77.25
66670;DHT22;53568;52.164;4.472;2024-01-07T01:46:16;2.60;77.32
66670;DHT22;53568;52.164;4.472;2024-01-07T01:48:42;2.77;76.89
66670;DHT22;53568;52.164;4.472;2024-01-07T01:51:09;2.61;77.06
66670;DHT22;53568;52.164;4.472;2024-01-07T01:53:35;2.55;77.45
66670;DHT22;53568;52.164;4.472;2024-01-07T01:56:01;2.51;78.10
66670;DHT22;53568;52.164;4.472;2024-01-07T01:58:30;2.50;78.00
66670;DHT22;53568;52.164;4.472;2024-01-07T02:00:56;2.47;77.99
66670;DHT22;53568;52.164;4.472;2024-01-07T02:03:22;2.41;78.22
66670;DHT22;53568;52.164;4.472;2024-01-07T02:05:50;2.48;78.11
66670;DHT22;53568;52.164;4.472;2024-01-07T02:08:17;2.50;77.69
66670;DHT22;53568;52.164;4.472;2024-01-07T02:10:43;2.53;77.70
66670;DHT22;53568;52.164;4.472;2024-01-07T02:13:10;2.53;77.73
66670;DHT22;53568;52.164;4.472;2024-01-07T02:15:36;2.47;78.14
66670;DHT22;53568;52.164;4.472;2024-01-07T02:18:01;2.44;78.22
66670;DHT22;53568;52.164;4.472;2024-01-07T02:20:27;2.48;78.04
66670;DHT22;53568;52.164;4.472;2024-01-07T02:22:52;2.62;78.05
66670;DHT22;53568;52.164;4.472;2024-01-07T02:25:18;2.54;77.79
66670;DHT22;53568;52.164;4.472;2024-01-07T02:27:44;2.41;78.14
66670;DHT22;53568;52.164;4.472;2024-01-07T02:30:10;2.38;78.18
66670;DHT22;53568;52.164;4.472;2024-01-07T02:32:35;2.54;77.99
66670;DHT22;53568;52.164;4.472;2024-01-07T02:35:03;2.47;78.21
66670;DHT22;53568;52.164;4.472;2024-01-07T02:37:29;2.30;79.04
66670;DHT22;53568;52.164;4.472;2024-01-07T02:39:54;2.41;78.97
66670;DHT22;53568;52.164;4.472;2024-01-07T02:42:20;2.53;78.46
66670;DHT22;53568;52.164;4.472;2024-01-07T02:44:45;2.54;78.70
66670;DHT22;53568;52.164;4.472;2024-01-07T02:47:11;2.47;78.75
66670;DHT22;53568;52.164;4.472;2024-01-07T02:49:36;2.51;78.82
66670;DHT22;53568;52.164;4.472;2024-01-07T02:52:02;2.50;78.54
66670;DHT22;53568;52.164;4.472;2024-01-07T02:54:28;2.45;78.87
66670;DHT22;53568;52.164;4.472;2024-01-07T02:56:53;2.47;78.90
66670;DHT22;53568;52.164;4.472;2024-01-07T02:59:20;2.65;78.58
66670;DHT22;53568;52.164;4.472;2024-01-07T03:01:45;2.70;78.32
66670;DHT22;53568;52.164;4.472;2024-01-07T03:04:14;2.58;78.09
66670;DHT22;53568;52.164;4.472;2024-01-07T03:06:40;2.45;79.15
66670;DHT22;53568;52.164;4.472;2024-01-07T03:09:06;2.48;79.34
66670;DHT22;53568;52.164;4.472;2024-01-07T03:11:33;2.71;78.52
66670;DHT22;53568;52.164;4.472;2024-01-07T03:13:58;2.71;78.77
66670;DHT22;53568;52.164;4.472;2024-01-07T03:16:26;2.55;78.59
66670;DHT22;53568;52.164;4.472;2024-01-07T03:18:51;2.47;79.28
66670;DHT22;53568;52.164;4.472;2024-01-07T03:21:22;2.41;79.69
66670;DHT22;53568;52.164;4.472;2024-01-07T03:23:49;2.44;79.33
66670;DHT22;53568;52.164;4.472;2024-01-07T03:26:17;2.50;79.45
66670;DHT22;53568;52.164;4.472;2024-01-07T03:28:43;2.37;79.84
66670;DHT22;53568;52.164;4.472;2024-01-07T03:31:14;2.45;79.41
66670;DHT22;53568;52.164;4.472;2024-01-07T03:33:40;2.61;79.31
66670;DHT22;53568;52.164;4.472;2024-01-07T03:36:11;2.48;79.22
66670;DHT22;53568;52.164;4.472;2024-01-07T03:38:37;2.64;78.72
66670;DHT22;53568;52.164;4.472;2024-01-07T03:41:03;2.55;78.82
66670;DHT22;53568;52.164;4.472;2024-01-07T03:43:29;2.45;78.77
66670;DHT22;53568;52.164;4.472;2024-01-07T03:45:54;2.53;78.50
66670;DHT22;53568;52.164;4.472;2024-01-07T03:48:20;2.64;78.33
66670;DHT22;53568;52.164;4.472;2024-01-07T03:50:46;2.65;77.82
66670;DHT22;53568;52.164;4.472;2024-01-07T03:53:13;2.57;77.69
66670;DHT22;53568;52.164;4.472;2024-01-07T03:55:38;2.70;76.86
66670;DHT22;53568;52.164;4.472;2024-01-07T03:58:05;2.57;77.08
66670;DHT22;53568;52.164;4.472;2024-01-07T04:00:34;2.62;76.82
66670;DHT22;53568;52.164;4.472;2024-01-07T04:03:00;2.67;77.10
66670;DHT22;53568;52.164;4.472;2024-01-07T04:05:26;2.71;77.04
66670;DHT22;53568;52.164;4.472;2024-01-07T04:07:51;2.83;76.49
66670;DHT22;53568;52.164;4.472;2024-01-07T04:10:17;2.54;76.70
66670;DHT22;53568;52.164;4.472;2024-01-07T04:12:43;2.53;77.05
66670;DHT22;53568;52.164;4.472;2024-01-07T04:15:10;2.55;76.58
66670;DHT22;53568;52.164;4.472;2024-01-07T04:17:36;2.62;76.66
66670;DHT22;53568;52.164;4.472;2024-01-07T04:20:01;2.73;76.39
66670;DHT22;53568;52.164;4.472;2024-01-07T04:22:27;2.70;76.12
66670;DHT22;53568;52.164;4.472;2024-01-07T04:24:52;2.70;76.78
66670;DHT22;53568;52.164;4.472;2024-01-07T04:27:18;2.71;76.70
66670;DHT22;53568;52.164;4.472;2024-01-07T04:29:43;2.53;76.69
66670;DHT22;53568;52.164;4.472;2024-01-07T04:32:09;2.43;77.35
66670;DHT22;53568;52.164;4.472;2024-01-07T04:34:34;2.55;77.17
66670;DHT22;53568;52.164;4.472;2024-01-07T04:37:00;2.50;77.59
66670;DHT22;53568;52.164;4.472;2024-01-07T04:39:26;2.50;77.39
66670;DHT22;53568;52.164;4.472;2024-01-07T04:41:51;2.44;78.08
66670;DHT22;53568;52.164;4.472;2024-01-07T04:44:17;2.57;77.78
66670;DHT22;53568;52.164;4.472;2024-01-07T04:46:42;2.51;77.95
66670;DHT22;53568;52.164;4.472;2024-01-07T04:49:08;2.40;78.28
66670;DHT22;53568;52.164;4.472;2024-01-07T04:51:33;2.48;78.04
66670;DHT22;53568;52.164;4.472;2024-01-07T04:53:59;2.47;78.20
66670;DHT22;53568;52.164;4.472;2024-01-07T04:56:25;2.38;78.21
66670;DHT22;53568;52.164;4.472;2024-01-07T04:58:50;2.48;78.30
66670;DHT22;53568;52.164;4.472;2024-01-07T05:01:16;2.33;78.40
66670;DHT22;53568;52.164;4.472;2024-01-07T05:03:41;2.29;78.03
66670;DHT22;53568;52.164;4.472;2024-01-07T05:06:10;2.51;77.70
66670;DHT22;53568;52.164;4.472;2024-01-07T05:08:36;2.47;77.74
66670;DHT22;53568;52.164;4.472;2024-01-07T05:11:03;2.55;77.59
66670;DHT22;53568;52.164;4.472;2024-01-07T05:13:29;2.51;77.80
66670;DHT22;53568;52.164;4.472;2024-01-07T05:15:54;2.65;77.35
66670;DHT22;53568;52.164;4.472;2024-01-07T05:18:24;2.80;77.05
66670;DHT22;53568;52.164;4.472;2024-01-07T05:20:50;2.77;76.76
66670;DHT22;53568;52.164;4.472;2024-01-07T05:23:16;2.70;76.97
66670;DHT22;53568;52.164;4.472;2024-01-07T05:25:43;2.64;77.17
66670;DHT22;53568;52.164;4.472;2024-01-07T05:28:09;2.62;76.89
66670;DHT22;53568;52.164;4.472;2024-01-07T05:30:35;2.80;76.80
66670;DHT22;53568;52.164;4.472;2024-01-07T05:33:00;2.74;76.95
66670;DHT22;53568;52.164;4.472;2024-01-07T05:35:26;2.78;77.14
66670;DHT22;53568;52.164;4.472;2024-01-07T05:37:51;2.98;76.45
66670;DHT22;53568;52.164;4.472;2024-01-07T05:40:17;3.02;76.20
66670;DHT22;53568;52.164;4.472;2024-01-07T05:42:42;3.05;76.02
66670;DHT22;53568;52.164;4.472;2024-01-07T05:45:08;3.02;75.79
66670;DHT22;53568;52.164;4.472;2024-01-07T05:47:34;2.75;76.49
66670;DHT22;53568;52.164;4.472;2024-01-07T05:49:59;2.77;76.45
66670;DHT22;53568;52.164;4.472;2024-01-07T05:52:25;2.71;76.39
66670;DHT22;53568;52.164;4.472;2024-01-07T05:54:50;2.71;76.33
66670;DHT22;53568;52.164;4.472;2024-01-07T05:57:16;2.57;77.33
66670;DHT22;53568;52.164;4.472;2024-01-07T05:59:44;2.57;77.42
66670;DHT22;53568;52.164;4.472;2024-01-07T06:02:09;2.62;77.23
66670;DHT22;53568;52.164;4.472;2024-01-07T06:04:37;2.64;77.38
66670;DHT22;53568;52.164;4.472;2024-01-07T06:07:03;2.61;77.63
66670;DHT22;53568;52.164;4.472;2024-01-07T06:09:29;2.70;77.22
66670;DHT22;53568;52.164;4.472;2024-01-07T06:11:55;2.81;76.96
66670;DHT22;53568;52.164;4.472;2024-01-07T06:14:22;2.81;76.73
66670;DHT22;53568;52.164;4.472;2024-01-07T06:16:48;2.64;77.23
66670;DHT22;53568;52.164;4.472;2024-01-07T06:19:17;2.80;77.08
66670;DHT22;53568;52.164;4.472;2024-01-07T06:21:42;2.78;77.35
66670;DHT22;53568;52.164;4.472;2024-01-07T06:24:08;2.53;77.99
66670;DHT22;53568;52.164;4.472;2024-01-07T06:26:34;2.55;78.43
66670;DHT22;53568;52.164;4.472;2024-01-07T06:29:00;2.47;78.71
66670;DHT22;53568;52.164;4.472;2024-01-07T06:31:25;2.58;78.70
66670;DHT22;53568;52.164;4.472;2024-01-07T06:33:51;2.70;78.43
66670;DHT22;53568;52.164;4.472;2024-01-07T06:36:17;2.47;78.89
66670;DHT22;53568;52.164;4.472;2024-01-07T06:38:43;2.68;78.09
66670;DHT22;53568;52.164;4.472;2024-01-07T06:41:10;2.64;78.23
66670;DHT22;53568;52.164;4.472;2024-01-07T06:43:35;2.45;78.92
66670;DHT22;53568;52.164;4.472;2024-01-07T06:46:01;2.41;79.32
66670;DHT22;53568;52.164;4.472;2024-01-07T06:48:26;2.54;78.82
66670;DHT22;53568;52.164;4.472;2024-01-07T06:50:52;2.43;79.33
66670;DHT22;53568;52.164;4.472;2024-01-07T06:53:17;2.41;79.03
66670;DHT22;53568;52.164;4.472;2024-01-07T06:55:43;2.43;79.44
66670;DHT22;53568;52.164;4.472;2024-01-07T06:58:08;2.37;78.83
66670;DHT22;53568;52.164;4.472;2024-01-07T07:00:34;2.27;79.24
66670;DHT22;53568;52.164;4.472;2024-01-07T07:02:59;2.32;79.09
66670;DHT22;53568;52.164;4.472;2024-01-07T07:05:25;2.30;79.10
66670;DHT22;53568;52.164;4.472;2024-01-07T07:07:50;2.30;78.87
66670;DHT22;53568;52.164;4.472;2024-01-07T07:10:16;2.30;78.47
66670;DHT22;53568;52.164;4.472;2024-01-07T07:12:41;2.26;78.66
66670;DHT22;53568;52.164;4.472;2024-01-07T07:15:07;2.40;78.25
66670;DHT22;53568;52.164;4.472;2024-01-07T07:17:36;2.44;77.72
66670;DHT22;53568;52.164;4.472;2024-01-07T07:20:02;2.34;78.24
66670;DHT22;53568;52.164;4.472;2024-01-07T07:22:28;2.26;78.26
66670;DHT22;53568;52.164;4.472;2024-01-07T07:24:53;2.41;77.64
66670;DHT22;53568;52.164;4.472;2024-01-07T07:27:19;2.44;77.59
66670;DHT22;53568;52.164;4.472;2024-01-07T07:29:44;2.43;77.59
66670;DHT22;53568;52.164;4.472;2024-01-07T07:32:10;2.53;77.01
66670;DHT22;53568;52.164;4.472;2024-01-07T07:34:35;2.47;76.77
66670;DHT22;53568;52.164;4.472;2024-01-07T07:37:02;2.36;76.77
66670;DHT22;53568;52.164;4.472;2024-01-07T07:39:28;2.23;76.99
66670;DHT22;53568;52.164;4.472;2024-01-07T07:41:53;2.36;77.06
66670;DHT22;53568;52.164;4.472;2024-01-07T07:44:19;2.53;76.59
66670;DHT22;53568;52.164;4.472;2024-01-07T07:46:44;2.43;76.47
66670;DHT22;53568;52.164;4.472;2024-01-07T07:49:10;2.51;76.30
66670;DHT22;53568;52.164;4.472;2024-01-07T07:51:36;2.37;76.72
66670;DHT22;53568;52.164;4.472;2024-01-07T07:54:02;2.41;76.55
66670;DHT22;53568;52.164;4.472;2024-01-07T07:56:28;2.54;76.11
66670;DHT22;53568;52.164;4.472;2024-01-07T07:58:54;2.58;75.83
66670;DHT22;53568;52.164;4.472;2024-01-07T08:01:20;2.55;75.95
66670;DHT22;53568;52.164;4.472;2024-01-07T08:03:45;2.61;76.09
66670;DHT22;53568;52.164;4.472;2024-01-07T08:06:11;2.45;75.99
66670;DHT22;53568;52.164;4.472;2024-01-07T08:08:36;2.29;76.78
66670;DHT22;53568;52.164;4.472;2024-01-07T08:11:02;2.24;77.02
66670;DHT22;53568;52.164;4.472;2024-01-07T08:13:28;2.09;77.15
66670;DHT22;53568;52.164;4.472;2024-01-07T08:15:53;2.27;76.93
66670;DHT22;53568;52.164;4.472;2024-01-07T08:18:19;2.29;76.96
66670;DHT22;53568;52.164;4.472;2024-01-07T08:20:44;2.40;76.60
66670;DHT22;53568;52.164;4.472;2024-01-07T08:23:09;2.54;76.15
66670;DHT22;53568;52.164;4.472;2024-01-07T08:25:35;2.44;75.46
66670;DHT22;53568;52.164;4.472;2024-01-07T08:28:01;2.22;76.00
66670;DHT22;53568;52.164;4.472;2024-01-07T08:30:26;2.27;76.18
66670;DHT22;53568;52.164;4.472;2024-01-07T08:32:52;2.32;76.05
66670;DHT22;53568;52.164;4.472;2024-01-07T08:35:17;2.34;75.95
66670;DHT22;53568;52.164;4.472;2024-01-07T08:37:43;2.36;75.59
66670;DHT22;53568;52.164;4.472;2024-01-07T08:40:10;2.24;75.47
66670;DHT22;53568;52.164;4.472;2024-01-07T08:42:36;2.32;75.40
66670;DHT22;53568;52.164;4.472;2024-01-07T08:45:01;2.34;75.22
66670;DHT22;53568;52.164;4.472;2024-01-07T08:47:29;2.32;74.72
66670;DHT22;53568;52.164;4.472;2024-01-07T08:49:57;2.20;75.20
66670;DHT22;53568;52.164;4.472;2024-01-07T08:52:23;2.13;75.41
66670;DHT22;53568;52.164;4.472;2024-01-07T08:54:48;2.30;75.49
66670;DHT22;53568;52.164;4.472;2024-01-07T08:57:14;2.23;74.70
66670;DHT22;53568;52.164;4.472;2024-01-07T08:59:39;2.14;74.47
66670;DHT22;53568;52.164;4.472;2024-01-07T09:02:05;1.99;75.21
66670;DHT22;53568;52.164;4.472;2024-01-07T09:04:30;2.19;75.20
66670;DHT22;53568;52.164;4.472;2024-01-07T09:06:57;2.22;74.79
66670;DHT22;53568;52.164;4.472;2024-01-07T09:09:23;2.17;74.30
66670;DHT22;53568;52.164;4.472;2024-01-07T09:11:49;2.22;73.95
66670;DHT22;53568;52.164;4.472;2024-01-07T09:14:14;2.22;74.18
66670;DHT22;53568;52.164;4.472;2024-01-07T09:16:40;2.16;74.16
66670;DHT22;53568;52.164;4.472;2024-01-07T09:19:05;2.20;73.95
66670;DHT22;53568;52.164;4.472;2024-01-07T09:21:31;2.20;74.28
66670;DHT22;53568;52.164;4.472;2024-01-07T09:23:56;2.29;74.15
66670;DHT22;53568;52.164;4.472;2024-01-07T09:26:22;2.32;73.33
66670;DHT22;53568;52.164;4.472;2024-01-07T09:28:47;2.33;73.00
66670;DHT22;53568;52.164;4.472;2024-01-07T09:31:13;2.13;71.91
66670;DHT22;53568;52.164;4.472;2024-01-07T09:33:38;1.99;72.39
66670;DHT22;53568;52.164;4.472;2024-01-07T09:36:04;1.96;72.59
66670;DHT22;53568;52.164;4.472;2024-01-07T09:38:30;1.90;72.86
66670;DHT22;53568;52.164;4.472;2024-01-07T09:40:55;2.07;72.63
66670;DHT22;53568;52.164;4.472;2024-01-07T09:43:21;2.14;72.84
66670;DHT22;53568;52.164;4.472;2024-01-07T09:45:47;2.14;73.04
66670;DHT22;53568;52.164;4.472;2024-01-07T09:48:15;2.16;72.74
66670;DHT22;53568;52.164;4.472;2024-01-07T09:50:42;2.29;72.24
66670;DHT22;53568;52.164;4.472;2024-01-07T09:53:15;2.32;72.27
66670;DHT22;53568;52.164;4.472;2024-01-07T09:58:28;2.43;71.60
66670;DHT22;53568;52.164;4.472;2024-01-07T10:00:54;2.36;71.36
66670;DHT22;53568;52.164;4.472;2024-01-07T10:03:19;2.23;71.79
66670;DHT22;53568;52.164;4.472;2024-01-07T10:05:45;2.17;71.67
66670;DHT22;53568;52.164;4.472;2024-01-07T10:08:11;2.19;71.90
66670;DHT22;53568;52.164;4.472;2024-01-07T10:10:36;2.16;71.95
66670;DHT22;53568;52.164;4.472;2024-01-07T10:13:02;2.19;71.97
66670;DHT22;53568;52.164;4.472;2024-01-07T10:15:28;2.23;71.55
66670;DHT22;53568;52.164;4.472;2024-01-07T10:18:03;2.17;71.44
66670;DHT22;53568;52.164;4.472;2024-01-07T10:20:29;2.19;71.69
66670;DHT22;53568;52.164;4.472;2024-01-07T10:22:56;2.17;71.23
66670;DHT22;53568;52.164;4.472;2024-01-07T10:25:22;2.23;71.15
66670;DHT22;53568;52.164;4.472;2024-01-07T10:27:48;2.32;71.00
66670;DHT22;53568;52.164;4.472;2024-01-07T10:30:15;2.26;71.18
66670;DHT22;53568;52.164;4.472;2024-01-07T10:32:42;2.32;71.38
66670;DHT22;53568;52.164;4.472;2024-01-07T10:35:12;2.14;70.88
66670;DHT22;53568;52.164;4.472;2024-01-07T10:37:39;2.20;71.05
66670;DHT22;53568;52.164;4.472;2024-01-07T10:40:07;2.38;70.63
66670;DHT22;53568;52.164;4.472;2024-01-07T10:42:33;2.40;70.09
66670;DHT22;53568;52.164;4.472;2024-01-07T10:45:02;2.45;69.77
66670;DHT22;53568;52.164;4.472;2024-01-07T10:47:31;2.50;70.41
66670;DHT22;53568;52.164;4.472;2024-01-07T10:49:57;2.54;69.83
66670;DHT22;53568;52.164;4.472;2024-01-07T10:52:23;2.54;69.87
66670;DHT22;53568;52.164;4.472;2024-01-07T10:54:49;2.61;69.79
66670;DHT22;53568;52.164;4.472;2024-01-07T10:59:59;2.71;69.19
66670;DHT22;53568;52.164;4.472;2024-01-07T11:02:26;2.70;68.60
66670;DHT22;53568;52.164;4.472;2024-01-07T11:05:31;2.43;69.28
66670;DHT22;53568;52.164;4.472;2024-01-07T11:08:13;2.41;68.99
66670;DHT22;53568;52.164;4.472;2024-01-07T11:10:50;2.45;68.94
66670;DHT22;53568;52.164;4.472;2024-01-07T11:13:36;2.44;68.58
66670;DHT22;53568;52.164;4.472;2024-01-07T11:16:04;2.45;68.60
66670;DHT22;53568;52.164;4.472;2024-01-07T11:18:31;2.43;68.56
66670;DHT22;53568;52.164;4.472;2024-01-07T11:21:00;2.53;68.06
66670;DHT22;53568;52.164;4.472;2024-01-07T11:23:36;2.57;67.70
66670;DHT22;53568;52.164;4.472;2024-01-07T11:26:08;2.70;67.81
66670;DHT22;53568;52.164;4.472;2024-01-07T11:31:18;3.01;67.10
66670;DHT22;53568;52.164;4.472;2024-01-07T11:33:46;3.09;66.42
66670;DHT22;53568;52.164;4.472;2024-01-07T11:36:13;3.21;66.42
66670;DHT22;53568;52.164;4.472;2024-01-07T11:38:48;3.28;66.21
66670;DHT22;53568;52.164;4.472;2024-01-07T11:41:15;3.28;66.29
66670;DHT22;53568;52.164;4.472;2024-01-07T11:43:56;3.26;65.71
66670;DHT22;53568;52.164;4.472;2024-01-07T11:46:23;3.08;66.12
66670;DHT22;53568;52.164;4.472;2024-01-07T11:48:54;3.13;66.80
66670;DHT22;53568;52.164;4.472;2024-01-07T11:51:28;3.12;65.83
66670;DHT22;53568;52.164;4.472;2024-01-07T11:53:54;2.97;65.73
66670;DHT22;53568;52.164;4.472;2024-01-07T11:56:20;2.81;65.08
66670;DHT22;53568;52.164;4.472;2024-01-07T11:58:45;2.80;65.69
66670;DHT22;53568;52.164;4.472;2024-01-07T12:01:11;2.87;65.30
66670;DHT22;53568;52.164;4.472;2024-01-07T12:03:39;2.94;65.25
66670;DHT22;53568;52.164;4.472;2024-01-07T12:06:06;2.85;65.52
66670;DHT22;53568;52.164;4.472;2024-01-07T12:08:32;2.71;65.87
66670;DHT22;53568;52.164;4.472;2024-01-07T12:10:59;2.55;66.83
66670;DHT22;53568;52.164;4.472;2024-01-07T12:13:25;2.44;66.93
66670;DHT22;53568;52.164;4.472;2024-01-07T12:15:51;2.43;66.96
66670;DHT22;53568;52.164;4.472;2024-01-07T12:18:17;2.34;66.90
66670;DHT22;53568;52.164;4.472;2024-01-07T12:20:55;2.36;67.27
66670;DHT22;53568;52.164;4.472;2024-01-07T12:23:20;2.41;66.59
66670;DHT22;53568;52.164;4.472;2024-01-07T12:25:46;2.41;66.55
66670;DHT22;53568;52.164;4.472;2024-01-07T12:28:11;2.48;65.77
66670;DHT22;53568;52.164;4.472;2024-01-07T12:30:37;2.58;65.74
66670;DHT22;53568;52.164;4.472;2024-01-07T12:33:04;2.74;64.93
66670;DHT22;53568;52.164;4.472;2024-01-07T12:35:31;2.64;64.84
66670;DHT22;53568;52.164;4.472;2024-01-07T12:37:56;2.64;65.11
66670;DHT22;53568;52.164;4.472;2024-01-07T12:40:24;2.64;65.01
66670;DHT22;53568;52.164;4.472;2024-01-07T12:42:52;2.85;64.28
66670;DHT22;53568;52.164;4.472;2024-01-07T12:45:17;2.94;64.09
66670;DHT22;53568;52.164;4.472;2024-01-07T12:47:43;3.11;63.56
66670;DHT22;53568;52.164;4.472;2024-01-07T12:50:10;3.09;63.67
66670;DHT22;53568;52.164;4.472;2024-01-07T12:52:39;3.04;63.08
66670;DHT22;53568;52.164;4.472;2024-01-07T12:55:05;2.70;62.47
66670;DHT22;53568;52.164;4.472;2024-01-07T12:57:32;2.73;62.93
66670;DHT22;53568;52.164;4.472;2024-01-07T12:59:57;2.75;62.77
66670;DHT22;53568;52.164;4.472;2024-01-07T13:02:23;2.85;62.54
66670;DHT22;53568;52.164;4.472;2024-01-07T13:04:50;2.95;62.82
66670;DHT22;53568;52.164;4.472;2024-01-07T13:07:15;2.84;61.97
66670;DHT22;53568;52.164;4.472;2024-01-07T13:09:41;2.65;62.87
66670;DHT22;53568;52.164;4.472;2024-01-07T13:12:06;2.75;62.44
66670;DHT22;53568;52.164;4.472;2024-01-07T13:14:32;2.68;63.15
66670;DHT22;53568;52.164;4.472;2024-01-07T13:16:57;2.64;63.25
66670;DHT22;53568;52.164;4.472;2024-01-07T13:19:23;2.53;64.08
66670;DHT22;53568;52.164;4.472;2024-01-07T13:21:50;2.55;64.04
66670;DHT22;53568;52.164;4.472;2024-01-07T13:24:16;2.61;64.08
66670;DHT22;53568;52.164;4.472;2024-01-07T13:26:41;2.71;63.09
66670;DHT22;53568;52.164;4.472;2024-01-07T13:29:07;2.62;62.81
66670;DHT22;53568;52.164;4.472;2024-01-07T13:31:32;2.41;63.54
66670;DHT22;53568;52.164;4.472;2024-01-07T13:33:58;2.48;63.30
66670;DHT22;53568;52.164;4.472;2024-01-07T13:36:24;2.64;62.73
66670;DHT22;53568;52.164;4.472;2024-01-07T13:38:49;2.67;62.69
66670;DHT22;53568;52.164;4.472;2024-01-07T13:41:16;2.85;62.71
66670;DHT22;53568;52.164;4.472;2024-01-07T13:43:42;2.88;62.42
66670;DHT22;53568;52.164;4.472;2024-01-07T13:46:08;3.02;62.39
66670;DHT22;53568;52.164;4.472;2024-01-07T13:48:34;3.04;62.56
66670;DHT22;53568;52.164;4.472;2024-01-07T13:51:00;3.02;62.58
66670;DHT22;53568;52.164;4.472;2024-01-07T13:53:26;3.15;62.37
66670;DHT22;53568;52.164;4.472;2024-01-07T13:55:51;3.11;62.27
66670;DHT22;53568;52.164;4.472;2024-01-07T13:58:17;2.92;62.67
66670;DHT22;53568;52.164;4.472;2024-01-07T14:00:42;2.87;62.89
66670;DHT22;53568;52.164;4.472;2024-01-07T14:03:08;2.85;63.38
66670;DHT22;53568;52.164;4.472;2024-01-07T14:05:33;2.84;63.45
66670;DHT22;53568;52.164;4.472;2024-01-07T14:07:59;2.78;62.89
66670;DHT22;53568;52.164;4.472;2024-01-07T14:10:24;2.60;63.12
66670;DHT22;53568;52.164;4.472;2024-01-07T14:12:50;2.55;63.70
66670;DHT22;53568;52.164;4.472;2024-01-07T14:15:15;2.65;63.14
66670;DHT22;53568;52.164;4.472;2024-01-07T14:17:43;2.75;62.79
66670;DHT22;53568;52.164;4.472;2024-01-07T14:20:09;2.75;62.84
66670;DHT22;53568;52.164;4.472;2024-01-07T14:22:35;2.55;63.17
66670;DHT22;53568;52.164;4.472;2024-01-07T14:25:01;2.36;63.81
66670;DHT22;53568;52.164;4.472;2024-01-07T14:27:26;2.17;64.28
66670;DHT22;53568;52.164;4.472;2024-01-07T14:29:52;2.13;64.29
66670;DHT22;53568;52.164;4.472;2024-01-07T14:32:18;2.16;63.92
66670;DHT22;53568;52.164;4.472;2024-01-07T14:34:43;2.27;63.81
66670;DHT22;53568;52.164;4.472;2024-01-07T14:37:10;2.17;62.93
66670;DHT22;53568;52.164;4.472;2024-01-07T14:39:36;2.20;63.78
66670;DHT22;53568;52.164;4.472;2024-01-07T14:42:02;2.11;63.55
66670;DHT22;53568;52.164;4.472;2024-01-07T14:44:29;2.02;63.86
66670;DHT22;53568;52.164;4.472;2024-01-07T14:46:54;2.07;63.61
66670;DHT22;53568;52.164;4.472;2024-01-07T14:49:20;2.06;63.56
66670;DHT22;53568;52.164;4.472;2024-01-07T14:51:45;2.05;64.07
66670;DHT22;53568;52.164;4.472;2024-01-07T14:54:12;2.24;63.84
66670;DHT22;53568;52.164;4.472;2024-01-07T14:56:38;2.37;63.19
66670;DHT22;53568;52.164;4.472;2024-01-07T14:59:03;2.38;63.36
66670;DHT22;53568;52.164;4.472;2024-01-07T15:01:29;2.23;63.36
66670;DHT22;53568;52.164;4.472;2024-01-07T15:03:54;2.37;63.65
66670;DHT22;53568;52.164;4.472;2024-01-07T15:06:21;2.27;63.23
66670;DHT22;53568;52.164;4.472;2024-01-07T15:08:47;2.03;63.76
66670;DHT22;53568;52.164;4.472;2024-01-07T15:11:14;2.06;64.10
66670;DHT22;53568;52.164;4.472;2024-01-07T15:13:40;2.06;63.70
66670;DHT22;53568;52.164;4.472;2024-01-07T15:16:06;2.11;63.89
66670;DHT22;53568;52.164;4.472;2024-01-07T15:18:32;2.14;63.90
66670;DHT22;53568;52.164;4.472;2024-01-07T15:20:57;2.36;63.46
66670;DHT22;53568;52.164;4.472;2024-01-07T15:23:23;2.11;64.05
66670;DHT22;53568;52.164;4.472;2024-01-07T15:25:48;2.19;63.67
66670;DHT22;53568;52.164;4.472;2024-01-07T15:28:14;2.09;64.14
66670;DHT22;53568;52.164;4.472;2024-01-07T15:30:39;2.14;64.44
66670;DHT22;53568;52.164;4.472;2024-01-07T15:33:05;2.26;64.43
66670;DHT22;53568;52.164;4.472;2024-01-07T15:35:30;2.37;64.08
66670;DHT22;53568;52.164;4.472;2024-01-07T15:37:56;2.38;64.17
66670;DHT22;53568;52.164;4.472;2024-01-07T15:40:23;2.20;64.74
66670;DHT22;53568;52.164;4.472;2024-01-07T15:42:48;2.20;65.23
66670;DHT22;53568;52.164;4.472;2024-01-07T15:45:14;2.17;65.24
66670;DHT22;53568;52.164;4.472;2024-01-07T15:47:39;2.30;64.76